Terminal Aerodrome Forecast
Issued by NWS

Home | Current Version | Previous Version | Text Only | Print | Product List | Glossary On
Versions: 1 2 3 4 5 6 7 8 9 10 11 12 13 14 15
000
FTAK31 PAJN 210500
TAFAWG
TAF
PAWG 210529Z 2106/2206 VRB03KT P6SM FEW045
     FM211100 VRB03KT 1SM BR BKN002
      TEMPO 2115/2119 1/2SM FG OVC001
     FM211900 32005KT P6SM VCFG SCT040
     FM220000 32007KT P6SM SCT050
      AMD LTD TO CLD VIS AND WIND 2106/2115=

USA.gov is the U.S. government's official web portal to all federal, state and local government web resources and services.